Aeroporto :
LOGIN :

Iscrizione | Disclaimer

   EN    FR    IT 

 










Sommario :    VFR   VFR Marginale   IFR   IFR Intensivo   IFR Molto Intensivo
Visibilità : 
Base nubi : 
>= 8 km
>= 3000ft
5 / 8 km
1000 / 3000 ft
1500m / 5 km
500 / 1000 ft
800 / 1500m
200 / 500 ft
< 800m
< 200 ft
Simboli :   Temporali  Nebbia  Neve Forte  Precipitazioni Forti  Vento > 20 kt
SIGMETs :   Varie  Temporali  Ghiacco  Turbolenza  Onda orograficha  Ceneri Vulcaniche






- Altitudine del aeroporto : 288 ft
- Codice IATA : BZZ


EGVN - RAF Brize Norton

ULTIMO METAR :
  • 022120Z 13001KT 9999 FEW022 SCT140 BKN300 14/12 Q1014 NOSIG

METARs OBSOLETI :
  • 022050Z 11003KT 9999 FEW022 SCT140 BKN300 14/12 Q1014 NOSIG
  • 022020Z 13003KT 9999 FEW022 SCT140 BKN300 14/12 Q1014 NOSIG RMK BLACKBLU BLU
  • 021950Z 14003KT 9999 VCSH FEW022 FEW024CB SCT100 BKN300 15/12 Q1014 NOSIG RMK BLACKBLU BLU
  • 021920Z 11004KT 9999 VCSH FEW022 FEW024CB SCT044 BKN100 15/12 Q1014 NOSIG RMK BLACKBLU BLU
  • 021850Z 16005KT 9999 VCSH FEW024CB SCT060 BKN150 15/11 Q1014 NOSIG RMK BLACKBLU BLU

TAF TAF EGVN
Valido dal 02 a 21 ore il 03 a 21 ore UTC


021938Z 0221/0321 VRB05KT 9999 SCT035
PROB40
TEMPO 0221/0224 7000 SHRA SCT024
PROB30
TEMPO 0302/0307 SCT010
PROB30
TEMPO 0307/0310 SCT020
PROB30
TEMPO 0310/0321 5000 SHRA SCT024



MetMap, La meteo Aeronautica in un colpo d'occhio ! - Copyright ORBIFLY Dicembre 2007 - Disclaimer

ORBIFLY MET'MAP TEAM :

Programmazione e sviluppo : Alexandra Zaïnal
Concezione : Baudouin d'Aumeries
Aiuto per la programmazione : Marc-Olivier Méhu
Supporto tecnico e logistico : Manuel Goepfert
Aiuto per la traduzione : Arnaldo La Scala

Contatto : metmap@orbifly.com




FONTI E CREDITI :

   NOAA